Time;durP1;ratioP1;P1;durP2;ratioP2;P2;SDS_P1;SDS_P2;PMS_P1;PMS_P2;Temp;Humidity;BMP_temperature;BMP_pressure;BME280_temperature;BME280_humidity;BME280_pressure;Samples;Min_cycle;Max_cycle;Signal;HPM_P1;HPM_P2
2021/03/04 00:01:18;;;;;;;;;;;;;;;7.00;44.65;101506.16;6138424;23;20045;-74
2021/03/04 00:03:46;;;;;;;;;;;;;;;6.91;46.12;101499.16;6159473;23;19924;-73
2021/03/04 00:06:13;;;;;;;;;;;;;;;6.88;46.63;101501.78;6135749;23;20008;-74
2021/03/04 00:08:40;;;;;;;;;;;;;;;6.86;46.80;101499.16;6139776;23;19920;-74
2021/03/04 00:11:08;;;;;;;;;;;;;;;6.95;46.11;101493.88;6136139;23;19932;-74
2021/03/04 00:13:35;;;;;;;;;;;;;;;7.01;45.35;101494.75;6138436;23;20447;-75
2021/03/04 00:16:02;;;;;;;;;;;;;;;7.11;44.33;101486.84;6161787;23;20329;-74
2021/03/04 00:18:32;;;;;;;;;;;;;;;7.13;44.11;101484.22;6140456;23;19924;-74
2021/03/04 00:21:02;;;;;;;;;;;;;;;7.18;43.38;101478.97;6141461;23;19925;-73
2021/03/04 00:23:29;;;;;;;;;;;;;;;7.21;42.93;101473.69;6146142;23;19924;-74
2021/03/04 00:26:02;;;;;;;;;;;;;;;7.23;42.69;101477.19;6142302;23;19939;-74
2021/03/04 00:28:30;;;;;;;;;;;;;;;7.25;42.31;101467.53;6145768;23;19920;-74
2021/03/04 00:30:57;;;;;;;;;;;;;;;7.27;42.02;101465.78;6161571;23;19935;-74
2021/03/04 00:33:27;;;;;;;;;;;;;;;7.28;41.57;101465.78;6165099;23;19944;-74
2021/03/04 00:35:54;;;;;;;;;;;;;;;7.30;41.07;101464.03;6143813;23;19931;-75
2021/03/04 00:38:21;;;;;;;;;;;;;;;7.28;41.00;101454.38;6167630;23;20296;-74
2021/03/04 00:40:48;;;;;;;;;;;;;;;7.31;40.98;101454.38;6140482;23;19925;-74
2021/03/04 00:43:15;;;;;;;;;;;;;;;7.33;40.56;101457.88;6167389;23;19924;-74
2021/03/04 00:45:43;;;;;;;;;;;;;;;7.32;40.49;101445.59;6139174;23;19931;-76
2021/03/04 00:48:10;;;;;;;;;;;;;;;7.18;41.05;101450.88;6134465;23;20184;-74
2021/03/04 00:50:38;;;;;;;;;;;;;;;7.02;42.15;101444.78;6137315;23;19979;-74
2021/03/04 00:53:05;;;;;;;;;;;;;;;6.91;42.74;101443.94;6136205;23;19925;-75
2021/03/04 00:55:32;;;;;;;;;;;;;;;6.82;42.92;101437.78;6136983;23;19931;-75
2021/03/04 00:57:59;;;;;;;;;;;;;;;6.77;43.29;101439.53;6137229;23;19925;-75
2021/03/04 01:00:29;;;;;;;;;;;;;;;6.73;44.18;101439.56;6132271;23;20413;-74
2021/03/04 01:02:56;;;;;;;;;;;;;;;6.69;44.63;101433.41;6156249;23;20346;-74
2021/03/04 01:05:24;;;;;;;;;;;;;;;6.64;45.09;101436.06;6135945;23;19944;-74
2021/03/04 01:07:51;;;;;;;;;;;;;;;6.62;45.48;101426.41;6161673;23;19936;-74
2021/03/04 01:10:19;;;;;;;;;;;;;;;6.59;46.25;101429.91;6133825;23;19924;-75
2021/03/04 01:12:46;;;;;;;;;;;;;;;6.58;45.91;101427.25;6137908;23;20027;-74
2021/03/04 01:15:14;;;;;;;;;;;;;;;6.56;46.36;101423.78;6136645;23;19932;-74
2021/03/04 01:17:41;;;;;;;;;;;;;;;6.54;46.82;101417.63;6135051;23;19931;-74
2021/03/04 01:20:11;;;;;;;;;;;;;;;6.52;47.00;101411.50;6164100;23;20572;-74
2021/03/04 01:22:38;;;;;;;;;;;;;;;6.50;47.41;101416.78;6142032;23;19924;-74
2021/03/04 01:25:06;;;;;;;;;;;;;;;6.49;47.51;101412.38;6166358;23;19931;-74
2021/03/04 01:27:33;;;;;;;;;;;;;;;6.47;47.65;101408.88;6144985;23;20086;-75
2021/03/04 01:30:00;;;;;;;;;;;;;;;6.45;48.17;101401.00;6138938;23;19925;-75
2021/03/04 01:32:27;;;;;;;;;;;;;;;6.44;48.30;101396.59;6140481;23;19925;-75
2021/03/04 01:34:54;;;;;;;;;;;;;;;6.43;48.54;101393.97;6142614;23;19968;-74
2021/03/04 01:37:22;;;;;;;;;;;;;;;6.42;48.47;101395.75;6143481;23;19925;-74
2021/03/04 01:39:49;;;;;;;;;;;;;;;6.41;48.99;101391.34;6142442;23;20778;-74
2021/03/04 01:42:16;;;;;;;;;;;;;;;6.41;48.94;101393.09;6141531;23;19960;-74
2021/03/04 01:44:46;;;;;;;;;;;;;;;6.39;49.00;101381.72;6138201;23;19992;-74
2021/03/04 01:47:14;;;;;;;;;;;;;;;6.38;49.35;101387.84;6141287;23;19944;-74
2021/03/04 01:49:41;;;;;;;;;;;;;;;6.36;49.67;101377.34;6146052;23;19995;-75
2021/03/04 01:52:09;;;;;;;;;;;;;;;6.36;49.36;101382.59;6167205;23;19925;-74
2021/03/04 01:54:37;;;;;;;;;;;;;;;6.34;49.56;101379.06;6142700;23;20543;-76
2021/03/04 01:57:04;;;;;;;;;;;;;;;6.33;49.67;101387.84;6142645;23;20275;-76
2021/03/04 01:59:31;;;;;;;;;;;;;;;6.31;49.95;101374.69;6139376;23;19925;-76
2021/03/04 02:01:58;;;;;;;;;;;;;;;6.31;50.27;101368.56;6143376;23;19931;-76
2021/03/04 02:04:25;;;;;;;;;;;;;;;6.30;50.26;101372.97;6145512;23;19924;-76
2021/03/04 02:06:57;;;;;;;;;;;;;;;6.30;50.35;101369.44;6164136;23;19972;-75
2021/03/04 02:09:25;;;;;;;;;;;;;;;6.28;50.56;101363.31;6143294;23;19928;-75
2021/03/04 02:11:55;;;;;;;;;;;;;;;6.28;50.49;101360.69;6131404;23;19928;-75
2021/03/04 02:14:24;;;;;;;;;;;;;;;6.27;50.57;101365.06;6131679;23;19920;-75
2021/03/04 02:16:54;;;;;;;;;;;;;;;6.25;50.97;101358.94;6133097;23;19932;-75
2021/03/04 02:19:33;;;;;;;;;;;;;;;6.25;50.96;101355.41;6138815;23;19928;-75
2021/03/04 02:22:09;;;;;;;;;;;;;;;6.25;51.15;101358.94;6139620;23;20000;-76
2021/03/04 02:24:40;;;;;;;;;;;;;;;6.26;51.10;101351.94;6136705;23;19925;-75
2021/03/04 02:27:10;;;;;;;;;;;;;;;6.27;51.15;101351.06;6131557;23;19940;-75
2021/03/04 02:29:40;;;;;;;;;;;;;;;6.50;50.04;101352.78;6132916;23;19924;-75
2021/03/04 02:32:10;;;;;;;;;;;;;;;6.65;48.44;101344.91;6134427;23;19928;-75
2021/03/04 02:34:43;;;;;;;;;;;;;;;6.69;47.05;101336.13;6138035;23;19972;-75
2021/03/04 02:37:10;;;;;;;;;;;;;;;6.88;45.98;101346.59;6133048;23;19924;-75
2021/03/04 02:39:38;;;;;;;;;;;;;;;6.92;45.35;101341.34;6135600;23;19928;-75
2021/03/04 02:42:05;;;;;;;;;;;;;;;6.95;44.72;101337.81;6154931;23;19925;-75
2021/03/04 02:44:33;;;;;;;;;;;;;;;6.88;46.31;101336.06;6137894;23;19924;-75
2021/03/04 02:47:01;;;;;;;;;;;;;;;6.84;46.98;101331.69;6137435;23;19924;-75
2021/03/04 02:49:40;;;;;;;;;;;;;;;6.82;47.30;101343.09;6142506;23;19924;-76
2021/03/04 02:52:07;;;;;;;;;;;;;;;6.93;46.66;101339.56;6141106;23;20309;-75
2021/03/04 02:54:34;;;;;;;;;;;;;;;7.02;45.85;101331.66;6140925;23;19924;-75
2021/03/04 02:57:03;;;;;;;;;;;;;;;7.06;45.00;101332.50;6142285;23;20450;-75
2021/03/04 02:59:31;;;;;;;;;;;;;;;7.14;43.86;101325.47;6142322;23;19935;-75
2021/03/04 03:01:59;;;;;;;;;;;;;;;7.17;43.90;101332.47;6168350;23;19940;-77
2021/03/04 03:04:27;;;;;;;;;;;;;;;7.22;42.98;101328.97;6144358;23;21028;-75
2021/03/04 03:06:55;;;;;;;;;;;;;;;7.26;42.86;101332.44;6167709;23;20150;-75
2021/03/04 03:09:22;;;;;;;;;;;;;;;7.29;42.42;101329.81;6139818;23;20699;-76
2021/03/04 03:11:51;;;;;;;;;;;;;;;7.31;41.65;101326.28;6141771;23;19924;-75
2021/03/04 03:14:18;;;;;;;;;;;;;;;7.35;41.40;101326.25;6143106;23;19924;-75
2021/03/04 03:16:45;;;;;;;;;;;;;;;7.35;41.30;101326.25;6088239;23;20279;-75
2021/03/04 03:19:13;;;;;;;;;;;;;;;7.35;41.33;101321.00;6115762;23;20149;-75
2021/03/04 03:21:40;;;;;;;;;;;;;;;7.38;41.10;101323.59;6112786;23;19931;-75
2021/03/04 03:24:08;;;;;;;;;;;;;;;7.40;41.06;101314.81;6087566;23;19951;-75
2021/03/04 03:26:36;;;;;;;;;;;;;;;7.35;40.75;101324.50;6111109;23;20355;-74
2021/03/04 03:29:03;;;;;;;;;;;;;;;7.19;41.04;101317.56;6089381;23;19925;-75
2021/03/04 03:31:31;;;;;;;;;;;;;;;7.10;41.98;101326.38;6113490;23;19925;-75
2021/03/04 03:33:58;;;;;;;;;;;;;;;7.00;42.67;101322.91;6088968;23;20361;-75
2021/03/04 03:36:27;;;;;;;;;;;;;;;6.94;43.18;101317.66;6117901;23;20131;-76
2021/03/04 03:38:54;;;;;;;;;;;;;;;6.90;43.74;101326.44;6084656;23;19925;-75
2021/03/04 03:41:23;;;;;;;;;;;;;;;6.86;44.03;101325.56;6103831;23;19924;-75
2021/03/04 03:43:50;;;;;;;;;;;;;;;6.85;44.66;101333.47;6084562;23;20008;-75
2021/03/04 03:46:17;;;;;;;;;;;;;;;6.81;45.21;101330.81;6083235;23;20028;-74
2021/03/04 03:48:46;;;;;;;;;;;;;;;6.78;45.37;101330.84;6111139;23;19977;-74
2021/03/04 03:51:14;;;;;;;;;;;;;;;6.76;45.93;101327.34;6083634;23;19936;-75
2021/03/04 03:53:42;;;;;;;;;;;;;;;6.75;46.45;101329.97;6102929;23;19925;-75
2021/03/04 03:56:10;;;;;;;;;;;;;;;6.74;46.60;101326.47;6106254;23;20134;-74
2021/03/04 03:58:38;;;;;;;;;;;;;;;6.71;46.83;101334.38;6084660;23;19929;-75
2021/03/04 04:01:06;;;;;;;;;;;;;;;6.70;47.06;101324.72;6083231;23;19944;-75
2021/03/04 04:03:34;;;;;;;;;;;;;;;6.70;47.34;101331.72;6108484;23;19925;-74
2021/03/04 04:06:02;;;;;;;;;;;;;;;6.69;47.60;101330.00;6108090;23;20178;-74
2021/03/04 04:08:34;;;;;;;;;;;;;;;6.67;47.64;101324.72;6105557;23;19952;-74
2021/03/04 04:11:02;;;;;;;;;;;;;;;6.65;47.83;101331.75;6084196;23;19935;-75
2021/03/04 04:13:29;;;;;;;;;;;;;;;6.65;48.07;101329.13;6107303;23;19932;-75
2021/03/04 04:15:56;;;;;;;;;;;;;;;6.64;48.36;101332.63;6146918;23;19921;-75
2021/03/04 04:18:24;;;;;;;;;;;;;;;6.63;48.75;101334.38;6146284;23;19952;-74
2021/03/04 04:20:53;;;;;;;;;;;;;;;6.62;48.61;101334.41;6141369;23;19924;-75
2021/03/04 04:23:20;;;;;;;;;;;;;;;6.60;48.92;101330.88;6139817;23;19924;-75
2021/03/04 04:25:48;;;;;;;;;;;;;;;6.59;49.09;101337.91;6168236;23;19987;-75
2021/03/04 04:28:16;;;;;;;;;;;;;;;6.59;49.41;101337.91;6144630;23;20042;-75
2021/03/04 04:30:43;;;;;;;;;;;;;;;6.58;49.22;101338.78;6144622;23;20252;-76
2021/03/04 04:33:10;;;;;;;;;;;;;;;6.58;49.46;101332.63;6166728;23;20003;-75
2021/03/04 04:35:37;;;;;;;;;;;;;;;6.56;49.49;101337.03;6143592;23;19982;-75
2021/03/04 04:38:04;;;;;;;;;;;;;;;6.56;49.46;101332.63;6140573;23;19935;-75
2021/03/04 04:40:33;;;;;;;;;;;;;;;6.55;49.64;101337.91;6145805;23;19943;-75
2021/03/04 04:43:00;;;;;;;;;;;;;;;6.53;50.05;101324.75;6144915;23;20417;-75
2021/03/04 04:45:28;;;;;;;;;;;;;;;6.53;49.97;101326.53;6141702;23;19959;-75
2021/03/04 04:47:55;;;;;;;;;;;;;;;6.52;49.85;101332.66;6146182;23;19924;-75
2021/03/04 04:50:22;;;;;;;;;;;;;;;6.50;50.08;101323.88;6140154;23;20567;-75
2021/03/04 04:52:49;;;;;;;;;;;;;;;6.50;50.35;101326.50;6141059;23;19959;-75
2021/03/04 04:55:17;;;;;;;;;;;;;;;6.48;50.66;101323.88;6165365;23;20322;-74
2021/03/04 04:57:43;;;;;;;;;;;;;;;6.47;50.74;101323.03;6146103;23;19996;-76
2021/03/04 05:00:11;;;;;;;;;;;;;;;6.47;50.77;101323.03;6145388;23;19951;-75
2021/03/04 05:02:39;;;;;;;;;;;;;;;6.45;50.80;101324.75;6144838;23;19952;-75
2021/03/04 05:05:07;;;;;;;;;;;;;;;6.45;50.78;101324.75;6132386;23;20031;-75
2021/03/04 05:07:34;;;;;;;;;;;;;;;6.44;51.18;101330.88;6132433;23;19941;-76
2021/03/04 05:10:02;;;;;;;;;;;;;;;6.43;51.13;101326.50;6136389;23;19924;-75
2021/03/04 05:12:29;;;;;;;;;;;;;;;6.50;50.73;101332.66;6162115;23;19948;-73
2021/03/04 05:14:56;;;;;;;;;;;;;;;6.66;49.47;101328.25;6133283;23;19925;-74
2021/03/04 05:17:23;;;;;;;;;;;;;;;6.80;48.03;101333.47;6136291;23;20662;-75
2021/03/04 05:19:51;;;;;;;;;;;;;;;6.90;46.75;101324.66;6132689;23;20247;-75
2021/03/04 05:22:18;;;;;;;;;;;;;;;6.98;46.02;101325.50;6137634;23;19924;-73
2021/03/04 05:24:46;;;;;;;;;;;;;;;7.01;45.04;101324.63;6160631;23;19925;-73
2021/03/04 05:27:13;;;;;;;;;;;;;;;7.01;45.31;101334.28;6138895;23;19924;-74
2021/03/04 05:29:40;;;;;;;;;;;;;;;6.88;46.34;101331.72;6138993;23;19925;-74
2021/03/04 05:32:07;;;;;;;;;;;;;;;6.81;47.06;101333.44;6158756;23;19924;-74
2021/03/04 05:34:39;;;;;;;;;;;;;;;6.79;47.44;101323.84;6134118;23;19924;-74
2021/03/04 05:37:06;;;;;;;;;;;;;;;6.87;47.10;101319.44;6138991;23;19968;-74
2021/03/04 05:39:33;;;;;;;;;;;;;;;6.96;46.00;101323.75;6141735;23;19920;-74
2021/03/04 05:42:01;;;;;;;;;;;;;;;7.04;45.38;101326.38;6139924;23;19924;-74
2021/03/04 05:44:28;;;;;;;;;;;;;;;7.07;44.41;101329.88;6143826;23;19932;-73
2021/03/04 05:46:55;;;;;;;;;;;;;;;7.14;43.70;101322.84;6162977;23;19928;-74
2021/03/04 05:49:24;;;;;;;;;;;;;;;7.15;43.31;101320.19;6140904;23;19979;-74
2021/03/04 05:51:59;;;;;;;;;;;;;;;7.20;42.64;101327.22;6143261;23;19931;-74
2021/03/04 05:54:28;;;;;;;;;;;;;;;7.20;42.39;101333.34;6146644;23;19921;-73
2021/03/04 05:56:57;;;;;;;;;;;;;;;7.22;42.01;101338.59;6143891;23;19925;-73
2021/03/04 05:59:26;;;;;;;;;;;;;;;7.23;41.90;101338.59;6142058;23;19928;-73
2021/03/04 06:01:53;;;;;;;;;;;;;;;7.25;41.84;101342.09;6139009;23;19924;-73
2021/03/04 06:04:20;;;;;;;;;;;;;;;7.28;41.09;101342.06;6140174;23;19925;-73
2021/03/04 06:06:48;;;;;;;;;;;;;;;7.29;41.10;101341.19;6141508;23;19929;-73
2021/03/04 06:09:15;;;;;;;;;;;;;;;7.30;40.79;101337.69;6170812;23;19920;-73
2021/03/04 06:11:43;;;;;;;;;;;;;;;7.35;40.45;101342.91;6144250;23;19924;-74
2021/03/04 06:14:11;;;;;;;;;;;;;;;7.26;40.49;101346.50;6145661;23;19920;-74
2021/03/04 06:16:38;;;;;;;;;;;;;;;7.11;41.43;101344.75;6136553;23;19924;-75
2021/03/04 06:19:05;;;;;;;;;;;;;;;7.03;42.19;101353.59;6138077;23;20237;-74
2021/03/04 06:21:32;;;;;;;;;;;;;;;6.94;42.83;101359.75;6138954;23;20349;-73
2021/03/04 06:23:59;;;;;;;;;;;;;;;6.90;43.84;101355.38;6140352;23;19924;-73
2021/03/04 06:26:27;;;;;;;;;;;;;;;6.84;43.98;101358.88;6139704;23;20305;-73
2021/03/04 06:28:55;;;;;;;;;;;;;;;6.81;44.45;101358.88;6138993;23;19968;-72
2021/03/04 06:31:22;;;;;;;;;;;;;;;6.78;44.80;101369.41;6138977;23;20665;-74
2021/03/04 06:33:49;;;;;;;;;;;;;;;6.77;45.68;101365.03;6142575;23;20015;-72
2021/03/04 06:36:17;;;;;;;;;;;;;;;6.75;45.95;101369.41;6136901;23;20417;-73
2021/03/04 06:38:53;;;;;;;;;;;;;;;6.75;46.30;101380.81;6139355;23;19925;-73
2021/03/04 06:41:21;;;;;;;;;;;;;;;6.74;46.58;101376.44;6140652;23;19955;-78
2021/03/04 06:43:58;;;;;;;;;;;;;;;6.74;46.86;101368.53;6133514;23;20486;-76
2021/03/04 06:46:27;;;;;;;;;;;;;;;6.73;47.26;101369.41;6134546;23;20000;-76
2021/03/04 06:48:54;;;;;;;;;;;;;;;6.75;47.14;101377.28;6137230;23;19954;-78
2021/03/04 06:51:24;;;;;;;;;;;;;;;6.76;47.34;101379.06;6137407;23;19924;-78
2021/03/04 06:53:53;;;;;;;;;;;;;;;6.89;47.27;101383.41;6162206;23;19924;-75
2021/03/04 06:56:30;;;;;;;;;;;;;;;6.99;51.00;101386.91;6137596;23;19999;-74
2021/03/04 06:59:00;;;;;;;;;;;;;;;7.10;52.14;101393.00;6155648;23;19928;-75
2021/03/04 07:01:29;;;;;;;;;;;;;;;7.18;51.39;101392.97;6157587;23;19925;-75
2021/03/04 07:03:56;;;;;;;;;;;;;;;7.25;51.38;101393.84;6137825;23;20249;-75
2021/03/04 07:06:34;;;;;;;;;;;;;;;7.28;50.49;101394.72;6159578;23;19924;-75
2021/03/04 07:09:01;;;;;;;;;;;;;;;7.31;50.54;101404.34;6140113;23;19955;-75
2021/03/04 07:11:29;;;;;;;;;;;;;;;7.31;50.04;101413.16;6138442;23;19944;-75
2021/03/04 07:13:58;;;;;;;;;;;;;;;7.32;49.90;101414.00;6140959;23;19948;-74
2021/03/04 07:16:26;;;;;;;;;;;;;;;7.36;50.47;101413.13;6143488;23;19929;-75
2021/03/04 07:18:56;;;;;;;;;;;;;;;7.38;49.73;101421.00;6143621;23;19946;-75
2021/03/04 07:21:23;;;;;;;;;;;;;;;7.39;49.65;101414.84;6144338;23;19944;-75
2021/03/04 07:23:51;;;;;;;;;;;;;;;7.41;49.83;101408.72;6144635;23;20310;-75
2021/03/04 07:26:20;;;;;;;;;;;;;;;7.43;49.84;101422.75;6138931;23;20259;-76
2021/03/04 07:28:48;;;;;;;;;;;;;;;7.53;48.96;101426.22;6162325;23;20129;-76
2021/03/04 07:31:15;;;;;;;;;;;;;;;7.69;47.37;101423.53;6130879;23;19935;-77
2021/03/04 07:33:44;;;;;;;;;;;;;;;7.79;46.36;101430.50;6157615;23;19935;-77
2021/03/04 07:36:12;;;;;;;;;;;;;;;7.83;45.24;101429.59;6158262;23;19924;-77
2021/03/04 07:38:39;;;;;;;;;;;;;;;7.86;44.38;101434.84;6161397;23;19940;-76
2021/03/04 07:41:10;;;;;;;;;;;;;;;7.90;43.61;101438.34;6154424;23;20344;-76
2021/03/04 07:43:44;;;;;;;;;;;;;;;7.79;44.81;101438.41;6181550;23;19924;-76
2021/03/04 07:46:11;;;;;;;;;;;;;;;7.76;45.61;101438.41;6160155;23;19921;-76
2021/03/04 07:48:48;;;;;;;;;;;;;;;7.77;45.75;101445.44;6160774;23;19955;-76
2021/03/04 07:51:16;;;;;;;;;;;;;;;7.87;45.62;101443.63;6184061;23;20318;-77
2021/03/04 07:53:44;;;;;;;;;;;;;;;8.01;44.14;101447.06;6159942;23;19927;-77
2021/03/04 07:56:23;;;;;;;;;;;;;;;8.19;42.97;101459.25;6180500;23;19921;-77
2021/03/04 07:58:50;;;;;;;;;;;;;;;8.34;42.25;101455.66;6160021;23;20401;-77
2021/03/04 08:01:19;;;;;;;;;;;;;;;8.47;40.84;101449.44;6161378;23;19920;-76
2021/03/04 08:03:47;;;;;;;;;;;;;;;8.69;40.31;101445.75;6185224;23;20199;-76
2021/03/04 08:06:16;;;;;;;;;;;;;;;8.79;39.13;101445.66;6185162;23;19951;-76
2021/03/04 08:08:46;;;;;;;;;;;;;;;8.84;38.92;101445.63;6158678;23;19921;-76
2021/03/04 08:11:28;;;;;;;;;;;;;;;8.92;38.66;101440.28;6159007;23;19920;-75
2021/03/04 08:13:55;;;;;;;;;;;;;;;8.97;38.60;101446.38;6156223;23;19920;-76
2021/03/04 08:16:22;;;;;;;;;;;;;;;8.93;38.81;101447.28;6158961;23;20346;-77
2021/03/04 08:18:52;;;;;;;;;;;;;;;8.97;37.85;101441.97;6161971;23;19928;-76
2021/03/04 08:21:19;;;;;;;;;;;;;;;9.06;38.01;101441.03;6160744;23;19921;-76
2021/03/04 08:23:51;;;;;;;;;;;;;;;9.11;37.80;101444.50;6153735;23;19920;-76
2021/03/04 08:26:22;;;;;;;;;;;;;;;9.10;37.92;101449.75;6158371;23;19928;-76
2021/03/04 08:28:49;;;;;;;;;;;;;;;9.09;38.45;101445.41;6161899;23;19931;-76
2021/03/04 08:31:16;;;;;;;;;;;;;;;9.09;39.22;101448.91;6158602;23;19921;-76
2021/03/04 08:33:53;;;;;;;;;;;;;;;9.11;39.68;101449.78;6159685;23;20693;-76
2021/03/04 08:36:21;;;;;;;;;;;;;;;9.05;39.86;101449.81;6182458;23;19924;-76
2021/03/04 08:38:52;;;;;;;;;;;;;;;9.01;41.02;101445.47;6158174;23;19940;-76
2021/03/04 08:41:19;;;;;;;;;;;;;;;9.04;41.12;101458.63;6158149;23;19932;-76
2021/03/04 08:43:46;;;;;;;;;;;;;;;9.00;41.52;101451.63;6159247;23;19972;-76
2021/03/04 08:46:19;;;;;;;;;;;;;;;9.14;41.08;101451.50;6158228;23;20254;-76
2021/03/04 08:48:49;;;;;;;;;;;;;;;9.22;41.27;101446.13;6162362;23;19984;-76
2021/03/04 08:51:16;;;;;;;;;;;;;;;9.19;41.42;101444.38;6153192;23;20003;-76
2021/03/04 08:53:46;;;;;;;;;;;;;;;9.24;41.53;101442.56;6154103;23;19925;-77
2021/03/04 08:56:15;;;;;;;;;;;;;;;9.26;42.08;101448.72;6158382;23;19925;-77
2021/03/04 08:58:43;;;;;;;;;;;;;;;9.32;41.61;101441.63;6157735;23;19948;-76
2021/03/04 09:01:11;;;;;;;;;;;;;;;9.45;41.52;101445.88;6158025;23;19965;-77
2021/03/04 09:03:39;;;;;;;;;;;;;;;9.34;42.23;101450.38;6184999;23;20299;-77
2021/03/04 09:06:08;;;;;;;;;;;;;;;9.36;42.55;101446.84;6155313;23;20331;-77
2021/03/04 09:08:35;;;;;;;;;;;;;;;9.29;43.45;101455.75;6182525;23;19925;-77
2021/03/04 09:11:03;;;;;;;;;;;;;;;9.27;43.00;101452.22;6184362;23;20278;-77
2021/03/04 09:13:32;;;;;;;;;;;;;;;9.32;43.07;101447.78;6159145;23;19940;-77
2021/03/04 09:16:06;;;;;;;;;;;;;;;9.37;43.20;101443.31;6183213;23;19956;-76
2021/03/04 09:18:41;;;;;;;;;;;;;;;9.67;43.16;101457.06;6157773;23;19924;-77
2021/03/04 09:21:10;;;;;;;;;;;;;;;10.14;42.03;101444.97;6179218;23;19967;-77
2021/03/04 09:23:37;;;;;;;;;;;;;;;10.07;42.04;101445.97;6157898;23;19928;-77
2021/03/04 09:26:04;;;;;;;;;;;;;;;10.14;42.77;101444.97;6159161;23;19982;-77
2021/03/04 09:28:32;;;;;;;;;;;;;;;10.17;42.37;101451.13;6157853;23;19927;-77
2021/03/04 09:31:08;;;;;;;;;;;;;;;9.94;43.21;101453.19;6158367;23;19924;-77
2021/03/04 09:33:35;;;;;;;;;;;;;;;9.88;43.54;101450.63;6156359;23;19924;-77
2021/03/04 09:36:03;;;;;;;;;;;;;;;9.97;43.08;101454.94;6155718;23;19931;-76
2021/03/04 09:38:36;;;;;;;;;;;;;;;10.16;43.06;101457.31;6183904;23;19925;-79
2021/03/04 09:41:11;;;;;;;;;;;;;;;10.13;43.14;101451.16;6158526;23;19924;-77
2021/03/04 09:43:43;;;;;;;;;;;;;;;10.26;42.71;101454.50;6158543;23;19924;-76
2021/03/04 09:46:13;;;;;;;;;;;;;;;10.59;42.15;101462.84;6156751;23;19924;-76
2021/03/04 09:48:40;;;;;;;;;;;;;;;10.82;41.74;101456.31;6154326;23;19952;-78
2021/03/04 09:51:07;;;;;;;;;;;;;;;10.93;41.85;101464.06;6180728;23;19932;-78
2021/03/04 09:53:44;;;;;;;;;;;;;;;11.19;41.14;101466.25;6160064;23;20353;-78
2021/03/04 09:56:13;;;;;;;;;;;;;;;14.22;34.75;101439.31;6185218;23;19928;-77
2021/03/04 09:58:44;;;;;;;;;;;;;;;13.06;36.81;101462.09;6159510;23;19924;-76
2021/03/04 10:01:11;;;;;;;;;;;;;;;12.07;39.72;101461.84;6157616;23;19977;-77
2021/03/04 10:03:43;;;;;;;;;;;;;;;12.09;39.43;101467.97;6157491;23;19928;-77
2021/03/04 10:06:20;;;;;;;;;;;;;;;11.55;41.19;101468.22;6162037;23;19921;-76
2021/03/04 10:08:52;;;;;;;;;;;;;;;11.36;41.86;101475.63;6159633;23;19977;-76
2021/03/04 10:18:08;;;;;;;;;;;;;;;12.42;39.60;101462.81;6104599;23;19925;-76
2021/03/04 10:20:40;;;;;;;;;;;;;;;12.70;39.25;101469.22;6110843;23;19941;31
2021/03/04 10:23:08;;;;;;;;;;;;;;;12.43;40.04;101467.19;6054394;23;19926;-76
2021/03/04 10:25:37;;;;;;;;;;;;;;;12.52;39.72;101470.56;6055351;23;19925;-75
2021/03/04 10:28:04;;;;;;;;;;;;;;;13.40;37.63;101465.69;6051185;23;19926;-75
2021/03/04 10:30:56;;;;;;;;;;;;;;;12.87;39.08;101464.38;6050065;23;20408;-75
2021/03/04 10:33:25;;;;;;;;;;;;;;;12.34;40.73;101466.56;6054818;23;19977;-76
2021/03/04 10:35:51;;;;;;;;;;;;;;;12.06;41.45;101473.34;6058237;23;20258;-75
2021/03/04 10:38:19;;;;;;;;;;;;;;;11.91;42.06;101474.53;6058029;23;20484;-75
2021/03/04 10:40:45;;;;;;;;;;;;;;;12.16;41.32;101484.66;6056918;23;19925;-76
2021/03/04 10:43:13;;;;;;;;;;;;;;;12.08;41.54;101475.97;6046550;23;19926;-75
2021/03/04 10:45:40;;;;;;;;;;;;;;;12.23;41.23;101483.59;6051106;23;20028;-76
2021/03/04 10:48:07;;;;;;;;;;;;;;;13.26;39.31;101476.63;6054597;23;19973;-76
2021/03/04 10:50:39;;;;;;;;;;;;;;;12.53;40.58;101480.25;6057801;23;20357;-76
2021/03/04 10:53:06;;;;;;;;;;;;;;;12.09;41.72;101486.53;6056424;23;19981;-76
2021/03/04 10:55:40;;;;;;;;;;;;;;;11.91;42.26;101485.13;6057963;23;19953;-75
2021/03/04 10:58:07;;;;;;;;;;;;;;;11.63;42.89;101483.06;6076206;23;20072;-76
2021/03/04 11:00:38;;;;;;;;;;;;;;;12.97;40.01;101480.06;6054177;23;20012;-76
2021/03/04 11:03:05;;;;;;;;;;;;;;;14.18;36.62;101482.91;6060720;23;19953;-77
2021/03/04 11:05:57;;;;;;;;;;;;;;;14.26;35.21;101480.88;6058817;23;19925;-77
2021/03/04 11:08:25;;;;;;;;;;;;;;;14.94;33.71;101484.03;6056788;23;19926;-76
2021/03/04 11:10:51;;;;;;;;;;;;;;;16.43;30.42;101480.34;6053710;23;20157;-77
2021/03/04 11:13:18;;;;;;;;;;;;;;;17.60;27.83;101487.03;6049984;23;19932;-77
2021/03/04 11:15:45;;;;;;;;;;;;;;;17.36;28.38;101492.53;6057663;23;20359;-76
2021/03/04 11:18:13;;;;;;;;;;;;;;;18.83;26.31;101488.38;6054485;23;19921;-77
2021/03/04 11:20:40;;;;;;;;;;;;;;;19.89;25.12;101487.31;6055212;23;20399;-76
2021/03/04 11:23:07;;;;;;;;;;;;;;;18.82;26.94;101486.63;6083094;23;19992;-76
2021/03/04 11:25:38;;;;;;;;;;;;;;;16.84;30.91;101482.25;6078424;23;19925;-77
2021/03/04 11:28:06;;;;;;;;;;;;;;;17.72;29.16;101496.31;6076860;23;19921;-76
2021/03/04 11:30:37;;;;;;;;;;;;;;;17.54;29.14;101490.84;6084884;23;19931;-76
2021/03/04 11:33:11;;;;;;;;;;;;;;;18.55;27.54;101481.69;6085909;23;20419;-76
2021/03/04 11:35:38;;;;;;;;;;;;;;;20.35;24.60;101491.09;6086219;23;19925;-76
2021/03/04 11:38:05;;;;;;;;;;;;;;;18.28;27.42;101488.38;6083104;23;19992;-76
2021/03/04 11:40:39;;;;;;;;;;;;;;;16.91;30.26;101491.78;6079884;23;19940;-76
2021/03/04 11:43:05;;;;;;;;;;;;;;;16.04;32.23;101491.66;6084000;23;19936;-77
2021/03/04 11:45:57;;;;;;;;;;;;;;;15.23;34.03;101504.38;6084566;23;20265;-77
2021/03/04 11:48:25;;;;;;;;;;;;;;;14.76;35.71;101494.41;6084455;23;19921;-76
2021/03/04 11:50:52;;;;;;;;;;;;;;;14.45;36.32;101506.00;6085091;23;19929;-75
2021/03/04 11:53:19;;;;;;;;;;;;;;;14.23;37.17;101507.59;6078438;23;19937;-75
2021/03/04 11:55:47;;;;;;;;;;;;;;;14.29;37.18;101515.41;6079424;23;20385;-75
2021/03/04 11:58:14;;;;;;;;;;;;;;;14.48;36.79;101510.34;6087521;23;19951;-75
2021/03/04 12:00:41;;;;;;;;;;;;;;;14.42;36.80;101513.22;6087730;23;19921;-75
2021/03/04 12:03:08;;;;;;;;;;;;;;;14.47;37.08;101505.09;6086700;23;19921;-75
2021/03/04 12:05:37;;;;;;;;;;;;;;;14.40;37.38;101510.59;6089160;23;20291;-75
2021/03/04 12:08:07;;;;;;;;;;;;;;;14.56;37.30;101504.78;6079747;23;20282;-75
2021/03/04 12:10:37;;;;;;;;;;;;;;;14.81;36.51;101514.69;6087728;23;20211;-75
2021/03/04 12:13:05;;;;;;;;;;;;;;;15.13;36.36;101513.59;6086221;23;20376;-75
2021/03/04 12:15:57;;;;;;;;;;;;;;;15.56;35.39;101508.53;6088945;23;20004;-76
2021/03/04 12:18:24;;;;;;;;;;;;;;;16.00;34.77;101505.19;6086336;23;19925;-76
2021/03/04 12:20:52;;;;;;;;;;;;;;;16.13;34.48;101506.47;6084829;23;19925;-75
2021/03/04 12:23:19;;;;;;;;;;;;;;;16.03;34.90;101513.09;6079669;23;20408;-75
2021/03/04 12:25:48;;;;;;;;;;;;;;;16.05;34.80;101508.56;6088402;23;19931;-75
2021/03/04 12:28:17;;;;;;;;;;;;;;;15.93;35.33;101513.44;6089044;23;20016;-75
2021/03/04 12:30:44;;;;;;;;;;;;;;;15.64;35.74;101511.81;6088516;23;19976;-76
2021/03/04 12:33:12;;;;;;;;;;;;;;;15.03;37.26;101506.84;6087813;23;19921;-75
2021/03/04 12:35:39;;;;;;;;;;;;;;;14.78;37.84;101507.66;6079190;23;20349;-76
2021/03/04 12:38:06;;;;;;;;;;;;;;;14.64;38.15;101508.09;6078179;23;19988;-75
2021/03/04 12:40:58;;;;;;;;;;;;;;;14.71;38.40;101508.81;6085172;23;19980;-76
2021/03/04 12:43:27;;;;;;;;;;;;;;;14.80;38.17;101503.16;6083325;23;19929;-76
2021/03/04 12:45:54;;;;;;;;;;;;;;;14.93;37.68;101507.16;6085322;23;19926;-76
2021/03/04 12:48:22;;;;;;;;;;;;;;;15.04;37.65;101504.13;6076066;23;20020;-76
2021/03/04 12:50:49;;;;;;;;;;;;;;;15.09;37.84;101504.84;6081175;23;19929;-75
2021/03/04 12:53:16;;;;;;;;;;;;;;;15.17;37.59;101504.59;6083306;23;19933;-76
2021/03/04 12:55:43;;;;;;;;;;;;;;;16.43;35.11;101501.72;6084244;23;20384;-77
2021/03/04 12:58:13;;;;;;;;;;;;;;;23.72;23.26;101488.63;6084595;23;19925;-76